sensor_id;sensor_type;location;lat;lon;timestamp;pressure;altitude;pressure_sealevel;temperature
79756;BMP280;69239;50.678;12.280;2023-11-19T00:01:53;97397.34;;;5.22
79756;BMP280;69239;50.678;12.280;2023-11-19T00:04:18;97396.56;;;5.21
79756;BMP280;69239;50.678;12.280;2023-11-19T00:06:44;97391.88;;;5.18
79756;BMP280;69239;50.678;12.280;2023-11-19T00:09:09;97378.91;;;5.08
79756;BMP280;69239;50.678;12.280;2023-11-19T00:11:34;97367.63;;;5.12
79756;BMP280;69239;50.678;12.280;2023-11-19T00:14:00;97368.22;;;5.09
79756;BMP280;69239;50.678;12.280;2023-11-19T00:16:25;97362.50;;;5.07
79756;BMP280;69239;50.678;12.280;2023-11-19T00:18:50;97374.16;;;5.15
79756;BMP280;69239;50.678;12.280;2023-11-19T00:21:16;97383.28;;;5.12
79756;BMP280;69239;50.678;12.280;2023-11-19T00:23:41;97349.47;;;4.97
79756;BMP280;69239;50.678;12.280;2023-11-19T00:26:07;97354.41;;;5.04
79756;BMP280;69239;50.678;12.280;2023-11-19T00:28:32;97345.53;;;5.00
79756;BMP280;69239;50.678;12.280;2023-11-19T00:30:59;97354.19;;;5.00
79756;BMP280;69239;50.678;12.280;2023-11-19T00:33:24;97357.00;;;5.04
79756;BMP280;69239;50.678;12.280;2023-11-19T00:35:49;97363.25;;;5.08
79756;BMP280;69239;50.678;12.280;2023-11-19T00:38:15;97330.50;;;4.92
79756;BMP280;69239;50.678;12.280;2023-11-19T00:40:41;97363.50;;;5.06
79756;BMP280;69239;50.678;12.280;2023-11-19T00:43:06;97316.69;;;4.91
79756;BMP280;69239;50.678;12.280;2023-11-19T00:45:32;97332.50;;;5.00
79756;BMP280;69239;50.678;12.280;2023-11-19T00:47:58;97323.13;;;4.99
79756;BMP280;69239;50.678;12.280;2023-11-19T00:50:25;97325.28;;;4.92
79756;BMP280;69239;50.678;12.280;2023-11-19T00:52:50;97323.09;;;5.04
79756;BMP280;69239;50.678;12.280;2023-11-19T00:55:16;97310.09;;;4.99
79756;BMP280;69239;50.678;12.280;2023-11-19T00:57:42;97308.53;;;4.98
79756;BMP280;69239;50.678;12.280;2023-11-19T01:00:08;97316.06;;;5.04
79756;BMP280;69239;50.678;12.280;2023-11-19T01:02:44;97302.22;;;5.04
79756;BMP280;69239;50.678;12.280;2023-11-19T01:05:10;97295.47;;;4.98
79756;BMP280;69239;50.678;12.280;2023-11-19T01:07:39;97308.22;;;5.04
79756;BMP280;69239;50.678;12.280;2023-11-19T01:10:05;97296.25;;;5.03
79756;BMP280;69239;50.678;12.280;2023-11-19T01:12:31;97288.13;;;5.05
79756;BMP280;69239;50.678;12.280;2023-11-19T01:14:56;97281.09;;;5.05
79756;BMP280;69239;50.678;12.280;2023-11-19T01:17:23;97268.34;;;4.99
79756;BMP280;69239;50.678;12.280;2023-11-19T01:19:48;97261.28;;;4.99
79756;BMP280;69239;50.678;12.280;2023-11-19T01:22:15;97263.06;;;5.09
79756;BMP280;69239;50.678;12.280;2023-11-19T01:24:40;97253.41;;;5.09
79756;BMP280;69239;50.678;12.280;2023-11-19T01:27:06;97246.41;;;5.05
79756;BMP280;69239;50.678;12.280;2023-11-19T01:29:31;97239.63;;;5.04
79756;BMP280;69239;50.678;12.280;2023-11-19T01:31:57;97240.13;;;5.06
79756;BMP280;69239;50.678;12.280;2023-11-19T01:34:22;97244.72;;;5.14
79756;BMP280;69239;50.678;12.280;2023-11-19T01:36:47;97250.47;;;5.16
79756;BMP280;69239;50.678;12.280;2023-11-19T01:39:14;97247.84;;;5.16
79756;BMP280;69239;50.678;12.280;2023-11-19T01:41:41;97220.75;;;5.12
79756;BMP280;69239;50.678;12.280;2023-11-19T01:44:07;97229.34;;;5.12
79756;BMP280;69239;50.678;12.280;2023-11-19T01:46:33;97210.91;;;5.09
79756;BMP280;69239;50.678;12.280;2023-11-19T01:48:59;97202.59;;;5.02
79756;BMP280;69239;50.678;12.280;2023-11-19T01:51:26;97218.09;;;5.17
79756;BMP280;69239;50.678;12.280;2023-11-19T01:53:52;97213.94;;;5.16
79756;BMP280;69239;50.678;12.280;2023-11-19T01:56:18;97205.69;;;5.09
79756;BMP280;69239;50.678;12.280;2023-11-19T01:58:45;97204.66;;;5.05
79756;BMP280;69239;50.678;12.280;2023-11-19T02:01:11;97221.75;;;5.16
79756;BMP280;69239;50.678;12.280;2023-11-19T02:03:38;97222.75;;;5.20
79756;BMP280;69239;50.678;12.280;2023-11-19T02:06:03;97216.50;;;5.21
79756;BMP280;69239;50.678;12.280;2023-11-19T02:08:30;97210.28;;;5.17
79756;BMP280;69239;50.678;12.280;2023-11-19T02:10:55;97212.84;;;5.22
79756;BMP280;69239;50.678;12.280;2023-11-19T02:13:26;97200.31;;;5.19
79756;BMP280;69239;50.678;12.280;2023-11-19T02:15:51;97189.91;;;5.19
79756;BMP280;69239;50.678;12.280;2023-11-19T02:18:22;97193.44;;;5.28
79756;BMP280;69239;50.678;12.280;2023-11-19T02:20:49;97184.56;;;5.29
79756;BMP280;69239;50.678;12.280;2023-11-19T02:23:15;97170.03;;;5.23
79756;BMP280;69239;50.678;12.280;2023-11-19T02:25:41;97168.13;;;5.29
79756;BMP280;69239;50.678;12.280;2023-11-19T02:28:08;97154.81;;;5.30
79756;BMP280;69239;50.678;12.280;2023-11-19T02:30:33;97177.44;;;5.35
79756;BMP280;69239;50.678;12.280;2023-11-19T02:32:59;97164.13;;;5.36
79756;BMP280;69239;50.678;12.280;2023-11-19T02:35:28;97157.13;;;5.32
79756;BMP280;69239;50.678;12.280;2023-11-19T02:37:57;97167.25;;;5.38
79756;BMP280;69239;50.678;12.280;2023-11-19T02:40:24;97151.63;;;5.33
79756;BMP280;69239;50.678;12.280;2023-11-19T02:42:50;97140.47;;;5.28
79756;BMP280;69239;50.678;12.280;2023-11-19T02:45:16;97110.50;;;5.25
79756;BMP280;69239;50.678;12.280;2023-11-19T02:47:42;97137.97;;;5.41
79756;BMP280;69239;50.678;12.280;2023-11-19T02:50:09;97131.88;;;5.46
79756;BMP280;69239;50.678;12.280;2023-11-19T02:52:39;97110.22;;;5.46
79756;BMP280;69239;50.678;12.280;2023-11-19T02:55:05;97118.56;;;5.48
79756;BMP280;69239;50.678;12.280;2023-11-19T02:57:34;97097.25;;;5.40
79756;BMP280;69239;50.678;12.280;2023-11-19T03:00:00;97092.44;;;5.48
79756;BMP280;69239;50.678;12.280;2023-11-19T03:02:25;97095.56;;;5.50
79756;BMP280;69239;50.678;12.280;2023-11-19T03:04:59;97083.91;;;5.42
79756;BMP280;69239;50.678;12.280;2023-11-19T03:07:25;97084.34;;;5.49
79756;BMP280;69239;50.678;12.280;2023-11-19T03:09:50;97078.56;;;5.52
79756;BMP280;69239;50.678;12.280;2023-11-19T03:12:16;97054.84;;;5.49
79756;BMP280;69239;50.678;12.280;2023-11-19T03:14:41;97073.06;;;5.54
79756;BMP280;69239;50.678;12.280;2023-11-19T03:17:07;97070.06;;;5.60
79756;BMP280;69239;50.678;12.280;2023-11-19T03:19:34;97036.03;;;5.52
79756;BMP280;69239;50.678;12.280;2023-11-19T03:22:01;97056.25;;;5.60
79756;BMP280;69239;50.678;12.280;2023-11-19T03:24:27;97072.34;;;5.67
79756;BMP280;69239;50.678;12.280;2023-11-19T03:26:52;97062.97;;;5.66
79756;BMP280;69239;50.678;12.280;2023-11-19T03:29:18;97060.28;;;5.71
79756;BMP280;69239;50.678;12.280;2023-11-19T03:31:43;97035.78;;;5.67
79756;BMP280;69239;50.678;12.280;2023-11-19T03:34:09;97044.50;;;5.76
79756;BMP280;69239;50.678;12.280;2023-11-19T03:36:35;97043.44;;;5.77
79756;BMP280;69239;50.678;12.280;2023-11-19T03:39:00;97024.28;;;5.68
79756;BMP280;69239;50.678;12.280;2023-11-19T03:41:26;97032.84;;;5.74
79756;BMP280;69239;50.678;12.280;2023-11-19T03:43:51;97038.22;;;5.77
79756;BMP280;69239;50.678;12.280;2023-11-19T03:46:18;97043.88;;;5.84
79756;BMP280;69239;50.678;12.280;2023-11-19T03:48:44;97041.78;;;5.86
79756;BMP280;69239;50.678;12.280;2023-11-19T03:51:09;97037.88;;;5.84
79756;BMP280;69239;50.678;12.280;2023-11-19T03:53:35;97050.66;;;5.85
79756;BMP280;69239;50.678;12.280;2023-11-19T03:56:00;96999.13;;;5.58
79756;BMP280;69239;50.678;12.280;2023-11-19T03:58:26;97039.63;;;5.88
79756;BMP280;69239;50.678;12.280;2023-11-19T04:00:51;97052.03;;;5.96
79756;BMP280;69239;50.678;12.280;2023-11-19T04:03:17;97047.28;;;5.98
79756;BMP280;69239;50.678;12.280;2023-11-19T04:05:44;97030.59;;;5.99
79756;BMP280;69239;50.678;12.280;2023-11-19T04:08:10;97019.63;;;5.97
79756;BMP280;69239;50.678;12.280;2023-11-19T04:10:35;97031.53;;;6.04
79756;BMP280;69239;50.678;12.280;2023-11-19T04:13:01;97016.75;;;5.99
79756;BMP280;69239;50.678;12.280;2023-11-19T04:15:26;97008.09;;;5.98
79756;BMP280;69239;50.678;12.280;2023-11-19T04:17:51;97009.94;;;5.98
79756;BMP280;69239;50.678;12.280;2023-11-19T04:20:17;97016.66;;;6.04
79756;BMP280;69239;50.678;12.280;2023-11-19T04:22:43;97007.16;;;6.08
79756;BMP280;69239;50.678;12.280;2023-11-19T04:25:08;96995.16;;;6.07
79756;BMP280;69239;50.678;12.280;2023-11-19T04:27:34;96996.91;;;6.12
79756;BMP280;69239;50.678;12.280;2023-11-19T04:29:59;96991.59;;;6.17
79756;BMP280;69239;50.678;12.280;2023-11-19T04:32:26;96997.00;;;6.20
79756;BMP280;69239;50.678;12.280;2023-11-19T04:34:52;96976.78;;;6.12
79756;BMP280;69239;50.678;12.280;2023-11-19T04:37:17;97000.59;;;6.24
79756;BMP280;69239;50.678;12.280;2023-11-19T04:39:46;97001.19;;;6.21
79756;BMP280;69239;50.678;12.280;2023-11-19T04:42:11;97003.91;;;6.30
79756;BMP280;69239;50.678;12.280;2023-11-19T04:44:37;96998.06;;;6.33
79756;BMP280;69239;50.678;12.280;2023-11-19T04:47:03;97001.19;;;6.35
79756;BMP280;69239;50.678;12.280;2023-11-19T04:49:28;96988.38;;;6.33
79756;BMP280;69239;50.678;12.280;2023-11-19T04:51:55;96985.75;;;6.33
79756;BMP280;69239;50.678;12.280;2023-11-19T04:54:21;96983.84;;;6.39
79756;BMP280;69239;50.678;12.280;2023-11-19T04:56:47;97005.06;;;6.51
79756;BMP280;69239;50.678;12.280;2023-11-19T04:59:12;96999.44;;;6.44
79756;BMP280;69239;50.678;12.280;2023-11-19T05:01:38;96998.28;;;6.50
79756;BMP280;69239;50.678;12.280;2023-11-19T05:04:03;97004.47;;;6.54
79756;BMP280;69239;50.678;12.280;2023-11-19T05:06:29;97002.84;;;6.58
79756;BMP280;69239;50.678;12.280;2023-11-19T05:08:56;96998.81;;;6.61
79756;BMP280;69239;50.678;12.280;2023-11-19T05:11:22;96998.81;;;6.61
79756;BMP280;69239;50.678;12.280;2023-11-19T05:13:47;96982.00;;;6.53
79756;BMP280;69239;50.678;12.280;2023-11-19T05:16:13;96975.59;;;6.59
79756;BMP280;69239;50.678;12.280;2023-11-19T05:18:41;96955.28;;;6.56
79756;BMP280;69239;50.678;12.280;2023-11-19T05:21:06;96947.22;;;6.67
79756;BMP280;69239;50.678;12.280;2023-11-19T05:23:32;96940.91;;;6.68
79756;BMP280;69239;50.678;12.280;2023-11-19T05:26:00;96940.34;;;6.71
79756;BMP280;69239;50.678;12.280;2023-11-19T05:28:25;96950.19;;;6.74
79756;BMP280;69239;50.678;12.280;2023-11-19T05:30:51;96947.13;;;6.72
79756;BMP280;69239;50.678;12.280;2023-11-19T05:33:17;96947.88;;;6.72
79756;BMP280;69239;50.678;12.280;2023-11-19T05:35:42;96901.47;;;6.42
79756;BMP280;69239;50.678;12.280;2023-11-19T05:38:07;96952.78;;;6.74
79756;BMP280;69239;50.678;12.280;2023-11-19T05:40:34;96965.69;;;6.84
79756;BMP280;69239;50.678;12.280;2023-11-19T05:43:00;96946.41;;;6.80
79756;BMP280;69239;50.678;12.280;2023-11-19T05:45:25;96951.53;;;6.85
79756;BMP280;69239;50.678;12.280;2023-11-19T05:47:51;96949.38;;;6.87
79756;BMP280;69239;50.678;12.280;2023-11-19T05:50:17;96951.91;;;6.92
79756;BMP280;69239;50.678;12.280;2023-11-19T05:52:43;96947.91;;;6.95
79756;BMP280;69239;50.678;12.280;2023-11-19T05:55:08;96948.22;;;6.93
79756;BMP280;69239;50.678;12.280;2023-11-19T05:57:38;96937.44;;;6.95
79756;BMP280;69239;50.678;12.280;2023-11-19T06:00:05;96949.53;;;7.04
79756;BMP280;69239;50.678;12.280;2023-11-19T06:02:35;96941.19;;;7.02
79756;BMP280;69239;50.678;12.280;2023-11-19T06:05:04;96952.72;;;7.01
79756;BMP280;69239;50.678;12.280;2023-11-19T06:07:31;96941.19;;;7.02
79756;BMP280;69239;50.678;12.280;2023-11-19T06:09:56;96911.13;;;6.91
79756;BMP280;69239;50.678;12.280;2023-11-19T06:12:22;96922.22;;;6.97
79756;BMP280;69239;50.678;12.280;2023-11-19T06:14:47;96933.84;;;7.04
79756;BMP280;69239;50.678;12.280;2023-11-19T06:17:13;96928.00;;;7.07
79756;BMP280;69239;50.678;12.280;2023-11-19T06:19:38;96938.94;;;7.09
79756;BMP280;69239;50.678;12.280;2023-11-19T06:22:04;96923.59;;;6.94
79756;BMP280;69239;50.678;12.280;2023-11-19T06:24:29;96968.09;;;7.16
79756;BMP280;69239;50.678;12.280;2023-11-19T06:26:55;96959.75;;;7.14
79756;BMP280;69239;50.678;12.280;2023-11-19T06:29:20;96955.50;;;7.18
79756;BMP280;69239;50.678;12.280;2023-11-19T06:31:46;96942.97;;;7.15
79756;BMP280;69239;50.678;12.280;2023-11-19T06:34:14;96950.28;;;7.18
79756;BMP280;69239;50.678;12.280;2023-11-19T06:36:40;96967.75;;;7.32
79756;BMP280;69239;50.678;12.280;2023-11-19T06:39:05;96955.41;;;7.32
79756;BMP280;69239;50.678;12.280;2023-11-19T06:41:31;96955.72;;;7.31
79756;BMP280;69239;50.678;12.280;2023-11-19T06:43:56;96968.59;;;7.41
79756;BMP280;69239;50.678;12.280;2023-11-19T06:46:22;96962.44;;;7.45
79756;BMP280;69239;50.678;12.280;2023-11-19T06:48:47;96978.63;;;7.47
79756;BMP280;69239;50.678;12.280;2023-11-19T06:51:13;96979.25;;;7.53
79756;BMP280;69239;50.678;12.280;2023-11-19T06:53:38;96968.91;;;7.48
79756;BMP280;69239;50.678;12.280;2023-11-19T06:56:18;96960.00;;;7.49
79756;BMP280;69239;50.678;12.280;2023-11-19T06:58:43;96961.91;;;7.57
79756;BMP280;69239;50.678;12.280;2023-11-19T07:01:08;96968.44;;;7.68
79756;BMP280;69239;50.678;12.280;2023-11-19T07:03:34;96958.19;;;7.58
79756;BMP280;69239;50.678;12.280;2023-11-19T07:06:00;96977.41;;;7.76
79756;BMP280;69239;50.678;12.280;2023-11-19T07:08:25;96968.47;;;7.77
79756;BMP280;69239;50.678;12.280;2023-11-19T07:10:52;96946.75;;;7.76
79756;BMP280;69239;50.678;12.280;2023-11-19T07:13:17;96966.34;;;7.88
79756;BMP280;69239;50.678;12.280;2023-11-19T07:15:44;96957.13;;;7.90
79756;BMP280;69239;50.678;12.280;2023-11-19T07:18:10;96965.50;;;8.01
79756;BMP280;69239;50.678;12.280;2023-11-19T07:20:36;96967.19;;;8.05
79756;BMP280;69239;50.678;12.280;2023-11-19T07:23:03;96959.16;;;8.02
79756;BMP280;69239;50.678;12.280;2023-11-19T07:25:28;96958.69;;;8.00
79756;BMP280;69239;50.678;12.280;2023-11-19T07:27:54;96975.72;;;8.11
79756;BMP280;69239;50.678;12.280;2023-11-19T07:30:19;96973.88;;;8.20
79756;BMP280;69239;50.678;12.280;2023-11-19T07:32:44;96975.28;;;8.26
79756;BMP280;69239;50.678;12.280;2023-11-19T07:35:10;96983.50;;;8.33
79756;BMP280;69239;50.678;12.280;2023-11-19T07:37:35;96955.72;;;8.32
79756;BMP280;69239;50.678;12.280;2023-11-19T07:40:01;96958.47;;;8.44
79756;BMP280;69239;50.678;12.280;2023-11-19T07:42:27;96957.78;;;8.53
79756;BMP280;69239;50.678;12.280;2023-11-19T07:44:52;96950.84;;;8.74
79756;BMP280;69239;50.678;12.280;2023-11-19T07:47:19;96960.09;;;8.97
79756;BMP280;69239;50.678;12.280;2023-11-19T07:49:45;96953.28;;;8.96
79756;BMP280;69239;50.678;12.280;2023-11-19T07:52:10;96973.09;;;9.02
79756;BMP280;69239;50.678;12.280;2023-11-19T07:54:35;96960.41;;;8.87
79756;BMP280;69239;50.678;12.280;2023-11-19T07:57:01;96982.34;;;8.91
79756;BMP280;69239;50.678;12.280;2023-11-19T07:59:26;96971.22;;;8.94
79756;BMP280;69239;50.678;12.280;2023-11-19T08:01:51;96978.78;;;8.96
79756;BMP280;69239;50.678;12.280;2023-11-19T08:04:17;96967.22;;;8.88
79756;BMP280;69239;50.678;12.280;2023-11-19T08:06:42;96967.03;;;8.93
79756;BMP280;69239;50.678;12.280;2023-11-19T08:09:08;96952.69;;;8.99
79756;BMP280;69239;50.678;12.280;2023-11-19T08:11:40;96959.47;;;9.00
79756;BMP280;69239;50.678;12.280;2023-11-19T08:14:05;96966.09;;;9.06
79756;BMP280;69239;50.678;12.280;2023-11-19T08:16:30;96957.91;;;9.17
79756;BMP280;69239;50.678;12.280;2023-11-19T08:18:56;96934.13;;;9.68
79756;BMP280;69239;50.678;12.280;2023-11-19T08:21:23;96969.63;;;10.21
79756;BMP280;69239;50.678;12.280;2023-11-19T08:23:48;96971.88;;;10.31
79756;BMP280;69239;50.678;12.280;2023-11-19T08:26:14;96976.69;;;10.29
79756;BMP280;69239;50.678;12.280;2023-11-19T08:28:40;96967.44;;;10.23
79756;BMP280;69239;50.678;12.280;2023-11-19T08:31:05;96973.34;;;10.41
79756;BMP280;69239;50.678;12.280;2023-11-19T08:33:32;96968.88;;;10.83
79756;BMP280;69239;50.678;12.280;2023-11-19T08:35:57;96950.66;;;10.78
79756;BMP280;69239;50.678;12.280;2023-11-19T08:38:24;96942.44;;;10.80
79756;BMP280;69239;50.678;12.280;2023-11-19T08:40:49;96942.44;;;10.80
79756;BMP280;69239;50.678;12.280;2023-11-19T08:43:14;96954.66;;;10.84
79756;BMP280;69239;50.678;12.280;2023-11-19T08:45:41;96948.84;;;11.36
79756;BMP280;69239;50.678;12.280;2023-11-19T08:48:06;96960.56;;;12.61
79756;BMP280;69239;50.678;12.280;2023-11-19T08:50:32;96945.34;;;12.70
79756;BMP280;69239;50.678;12.280;2023-11-19T08:52:57;96946.50;;;12.44
79756;BMP280;69239;50.678;12.280;2023-11-19T08:55:22;96962.06;;;12.21
79756;BMP280;69239;50.678;12.280;2023-11-19T08:57:48;96962.94;;;12.01
79756;BMP280;69239;50.678;12.280;2023-11-19T09:00:13;96971.44;;;11.82
79756;BMP280;69239;50.678;12.280;2023-11-19T09:02:41;96948.00;;;11.56
79756;BMP280;69239;50.678;12.280;2023-11-19T09:05:08;96951.94;;;11.38
79756;BMP280;69239;50.678;12.280;2023-11-19T09:07:33;96949.94;;;11.23
79756;BMP280;69239;50.678;12.280;2023-11-19T09:09:59;96971.53;;;11.16
79756;BMP280;69239;50.678;12.280;2023-11-19T09:12:24;96962.03;;;11.03
79756;BMP280;69239;50.678;12.280;2023-11-19T09:14:49;96956.19;;;10.85
79756;BMP280;69239;50.678;12.280;2023-11-19T09:17:15;96969.34;;;10.85
79756;BMP280;69239;50.678;12.280;2023-11-19T09:19:41;96955.78;;;10.75
79756;BMP280;69239;50.678;12.280;2023-11-19T09:22:07;96973.91;;;10.76
79756;BMP280;69239;50.678;12.280;2023-11-19T09:24:32;96979.81;;;10.73
79756;BMP280;69239;50.678;12.280;2023-11-19T09:26:58;96969.16;;;10.70
79756;BMP280;69239;50.678;12.280;2023-11-19T09:29:23;96982.88;;;10.75
79756;BMP280;69239;50.678;12.280;2023-11-19T09:31:49;96984.44;;;10.76
79756;BMP280;69239;50.678;12.280;2023-11-19T09:34:14;96965.78;;;10.81
79756;BMP280;69239;50.678;12.280;2023-11-19T09:36:39;96961.44;;;10.85
79756;BMP280;69239;50.678;12.280;2023-11-19T09:39:12;96949.47;;;10.88
79756;BMP280;69239;50.678;12.280;2023-11-19T09:41:40;96962.88;;;11.98
79756;BMP280;69239;50.678;12.280;2023-11-19T09:44:06;96947.66;;;14.32
79756;BMP280;69239;50.678;12.280;2023-11-19T09:46:32;96938.34;;;15.00
79756;BMP280;69239;50.678;12.280;2023-11-19T09:48:58;96955.03;;;15.00
79756;BMP280;69239;50.678;12.280;2023-11-19T09:51:24;96943.94;;;15.67
79756;BMP280;69239;50.678;12.280;2023-11-19T09:53:50;96947.41;;;17.49
79756;BMP280;69239;50.678;12.280;2023-11-19T09:56:16;96941.44;;;19.31
79756;BMP280;69239;50.678;12.280;2023-11-19T09:58:44;96929.28;;;20.31
79756;BMP280;69239;50.678;12.280;2023-11-19T10:01:09;96948.97;;;21.51
79756;BMP280;69239;50.678;12.280;2023-11-19T10:03:39;96938.78;;;22.81
79756;BMP280;69239;50.678;12.280;2023-11-19T10:06:08;96936.13;;;23.83
79756;BMP280;69239;50.678;12.280;2023-11-19T10:08:37;96931.50;;;25.13
79756;BMP280;69239;50.678;12.280;2023-11-19T10:11:02;96944.72;;;25.90
79756;BMP280;69239;50.678;12.280;2023-11-19T10:13:28;96940.88;;;26.64
79756;BMP280;69239;50.678;12.280;2023-11-19T10:15:55;96929.59;;;26.31
79756;BMP280;69239;50.678;12.280;2023-11-19T10:18:27;96941.69;;;25.88
79756;BMP280;69239;50.678;12.280;2023-11-19T10:20:52;96939.78;;;26.61
79756;BMP280;69239;50.678;12.280;2023-11-19T10:23:18;96943.13;;;25.93
79756;BMP280;69239;50.678;12.280;2023-11-19T10:25:44;96933.69;;;24.24
79756;BMP280;69239;50.678;12.280;2023-11-19T10:28:10;96943.22;;;22.91
79756;BMP280;69239;50.678;12.280;2023-11-19T10:30:35;96935.09;;;21.90
79756;BMP280;69239;50.678;12.280;2023-11-19T10:33:08;96949.94;;;21.31
79756;BMP280;69239;50.678;12.280;2023-11-19T10:35:35;96942.03;;;20.72
79756;BMP280;69239;50.678;12.280;2023-11-19T10:38:14;96943.09;;;20.26
79756;BMP280;69239;50.678;12.280;2023-11-19T10:40:40;96947.81;;;19.90
79756;BMP280;69239;50.678;12.280;2023-11-19T10:43:06;96949.44;;;19.45
79756;BMP280;69239;50.678;12.280;2023-11-19T10:45:36;96938.03;;;19.23
79756;BMP280;69239;50.678;12.280;2023-11-19T10:48:03;96941.09;;;18.97
79756;BMP280;69239;50.678;12.280;2023-11-19T10:50:35;96945.25;;;18.52
79756;BMP280;69239;50.678;12.280;2023-11-19T10:53:02;96938.22;;;18.01
79756;BMP280;69239;50.678;12.280;2023-11-19T10:55:37;96940.63;;;17.51
79756;BMP280;69239;50.678;12.280;2023-11-19T10:58:07;96949.44;;;17.15
79756;BMP280;69239;50.678;12.280;2023-11-19T11:00:52;96939.47;;;16.64
79756;BMP280;69239;50.678;12.280;2023-11-19T11:03:20;96957.03;;;16.39
79756;BMP280;69239;50.678;12.280;2023-11-19T11:05:48;96947.94;;;16.06
79756;BMP280;69239;50.678;12.280;2023-11-19T11:08:13;96933.59;;;15.84
79756;BMP280;69239;50.678;12.280;2023-11-19T11:10:43;96943.16;;;15.63
79756;BMP280;69239;50.678;12.280;2023-11-19T11:13:09;96945.88;;;15.43
79756;BMP280;69239;50.678;12.280;2023-11-19T11:15:35;96955.53;;;15.32
79756;BMP280;69239;50.678;12.280;2023-11-19T11:18:02;96956.91;;;15.23
79756;BMP280;69239;50.678;12.280;2023-11-19T11:20:32;96940.88;;;15.15
79756;BMP280;69239;50.678;12.280;2023-11-19T11:26:00;96948.53;;;15.43
79756;BMP280;69239;50.678;12.280;2023-11-19T11:28:57;96933.84;;;15.49
79756;BMP280;69239;50.678;12.280;2023-11-19T11:31:43;96940.13;;;15.64
79756;BMP280;69239;50.678;12.280;2023-11-19T11:39:16;96932.25;;;15.41
79756;BMP280;69239;50.678;12.280;2023-11-19T11:41:42;96931.16;;;15.23
79756;BMP280;69239;50.678;12.280;2023-11-19T11:44:08;96931.66;;;15.06
79756;BMP280;69239;50.678;12.280;2023-11-19T11:49:06;96937.53;;;14.96
79756;BMP280;69239;50.678;12.280;2023-11-19T11:57:10;96912.91;;;15.18
79756;BMP280;69239;50.678;12.280;2023-11-19T12:02:12;96921.50;;;15.11
79756;BMP280;69239;50.678;12.280;2023-11-19T12:04:39;96908.25;;;14.88
79756;BMP280;69239;50.678;12.280;2023-11-19T12:07:12;96917.47;;;14.75
79756;BMP280;69239;50.678;12.280;2023-11-19T12:09:40;96904.09;;;14.49
79756;BMP280;69239;50.678;12.280;2023-11-19T12:12:18;96924.53;;;14.48
79756;BMP280;69239;50.678;12.280;2023-11-19T12:15:09;96921.28;;;14.36
79756;BMP280;69239;50.678;12.280;2023-11-19T12:17:49;96918.78;;;14.24
79756;BMP280;69239;50.678;12.280;2023-11-19T12:20:15;96925.72;;;14.12
79756;BMP280;69239;50.678;12.280;2023-11-19T12:22:43;96911.38;;;13.94
79756;BMP280;69239;50.678;12.280;2023-11-19T12:25:10;96940.88;;;13.96
79756;BMP280;69239;50.678;12.280;2023-11-19T12:27:36;96950.91;;;13.87
79756;BMP280;69239;50.678;12.280;2023-11-19T12:30:02;96963.84;;;13.76
79756;BMP280;69239;50.678;12.280;2023-11-19T12:32:44;96949.94;;;13.64
79756;BMP280;69239;50.678;12.280;2023-11-19T12:35:11;96969.00;;;13.53
79756;BMP280;69239;50.678;12.280;2023-11-19T12:37:40;96967.09;;;13.38
79756;BMP280;69239;50.678;12.280;2023-11-19T12:40:17;96964.97;;;13.28
79756;BMP280;69239;50.678;12.280;2023-11-19T12:42:54;96937.66;;;13.08
79756;BMP280;69239;50.678;12.280;2023-11-19T12:45:20;96954.75;;;13.11
79756;BMP280;69239;50.678;12.280;2023-11-19T12:47:47;96954.56;;;13.04
79756;BMP280;69239;50.678;12.280;2023-11-19T12:50:14;96935.22;;;12.87
79756;BMP280;69239;50.678;12.280;2023-11-19T12:52:40;96953.59;;;12.96
79756;BMP280;69239;50.678;12.280;2023-11-19T12:55:27;96958.19;;;12.99
79756;BMP280;69239;50.678;12.280;2023-11-19T12:57:53;96958.03;;;13.08
79756;BMP280;69239;50.678;12.280;2023-11-19T13:00:24;96957.53;;;13.18
79756;BMP280;69239;50.678;12.280;2023-11-19T13:02:51;96968.88;;;13.18
79756;BMP280;69239;50.678;12.280;2023-11-19T13:10:28;96956.44;;;12.91
79756;BMP280;69239;50.678;12.280;2023-11-19T13:13:07;96952.75;;;12.80
79756;BMP280;69239;50.678;12.280;2023-11-19T13:15:34;96958.63;;;12.73
79756;BMP280;69239;50.678;12.280;2023-11-19T13:18:00;96961.84;;;12.67
79756;BMP280;69239;50.678;12.280;2023-11-19T13:20:26;96953.63;;;12.56
79756;BMP280;69239;50.678;12.280;2023-11-19T13:22:56;96978.16;;;12.57
79756;BMP280;69239;50.678;12.280;2023-11-19T13:25:21;96952.53;;;12.45
79756;BMP280;69239;50.678;12.280;2023-11-19T13:27:47;96953.66;;;12.44
79756;BMP280;69239;50.678;12.280;2023-11-19T13:30:12;96940.44;;;12.44
79756;BMP280;69239;50.678;12.280;2023-11-19T13:32:38;96950.75;;;12.61
79756;BMP280;69239;50.678;12.280;2023-11-19T13:35:05;96945.22;;;12.66
79756;BMP280;69239;50.678;12.280;2023-11-19T13:37:31;96937.28;;;12.66
79756;BMP280;69239;50.678;12.280;2023-11-19T13:39:56;96937.06;;;12.71
79756;BMP280;69239;50.678;12.280;2023-11-19T13:42:21;96947.03;;;12.78
79756;BMP280;69239;50.678;12.280;2023-11-19T13:44:47;96928.94;;;12.64
79756;BMP280;69239;50.678;12.280;2023-11-19T13:47:12;96950.69;;;12.73
79756;BMP280;69239;50.678;12.280;2023-11-19T13:49:39;96945.91;;;12.63
79756;BMP280;69239;50.678;12.280;2023-11-19T13:52:04;96951.28;;;12.67
79756;BMP280;69239;50.678;12.280;2023-11-19T13:54:30;96940.06;;;12.57
79756;BMP280;69239;50.678;12.280;2023-11-19T13:56:56;96954.03;;;12.58
79756;BMP280;69239;50.678;12.280;2023-11-19T13:59:23;96933.28;;;12.44
79756;BMP280;69239;50.678;12.280;2023-11-19T14:01:48;96942.66;;;12.54
79756;BMP280;69239;50.678;12.280;2023-11-19T14:04:14;96947.03;;;12.50
79756;BMP280;69239;50.678;12.280;2023-11-19T14:06:40;96943.56;;;12.46
79756;BMP280;69239;50.678;12.280;2023-11-19T14:09:06;96944.31;;;12.46
79756;BMP280;69239;50.678;12.280;2023-11-19T14:11:32;96943.00;;;12.40
79756;BMP280;69239;50.678;12.280;2023-11-19T14:13:58;96948.53;;;12.35
79756;BMP280;69239;50.678;12.280;2023-11-19T14:16:26;96935.66;;;12.34
79756;BMP280;69239;50.678;12.280;2023-11-19T14:18:52;96942.88;;;12.37
79756;BMP280;69239;50.678;12.280;2023-11-19T14:21:18;96944.34;;;12.34
79756;BMP280;69239;50.678;12.280;2023-11-19T14:23:43;96936.22;;;12.27
79756;BMP280;69239;50.678;12.280;2023-11-19T14:26:09;96943.44;;;12.30